W Hartford, Connecticut
Current Conditions -  °F | °C
As of 6:53 AM on Monday 20 Oct 2014 (Local Time) from KHFD Reporting Station
Clear Clear  
Wind Chill: 35°   Ceiling: Unl
Heat Index: 35°   Visibility: 10mi
Dew Point: 30°   Wind: 3mph
Humidity: 82%   Direction: 180°S
Pressure: 30.07"   Gusts: NA
Location:  41.7326°N, 72.7337°W
Report Text: KHFD 201053Z 18003KT 10SM CLR 02/M01 A3007 RMK AO2 SLP182 T00171011 $
Loading
Personal Weather Stations






























Interactive Weather Map
Tropical Storm Tracking
New forecast layout! Learn more

10-Day Weather Forecast

Advertisements
Track Severe Weather on mobile